createdAt,value
2022-11-09T00:00:12.366Z,56.63
2022-11-09T00:01:12.362Z,67.37
2022-11-09T00:02:12.351Z,49.93
2022-11-09T00:03:12.370Z,54.12
2022-11-09T00:04:12.330Z,60.61
2022-11-09T00:05:13.323Z,65.00
2022-11-09T00:06:12.309Z,49.01
2022-11-09T00:07:12.485Z,52.42
2022-11-09T00:08:12.292Z,59.31
2022-11-09T00:09:12.296Z,66.56
2022-11-09T00:10:12.333Z,52.85
2022-11-09T00:11:12.284Z,50.79
2022-11-09T00:12:12.308Z,60.30
2022-11-09T00:13:12.384Z,45.65
2022-11-09T00:14:12.401Z,46.81
2022-11-09T00:15:12.495Z,56.17
2022-11-09T00:16:12.396Z,56.67
2022-11-09T00:17:12.444Z,40.87
2022-11-09T00:18:12.412Z,42.71
2022-11-09T00:19:12.417Z,54.25
2022-11-09T00:20:12.380Z,53.11
2022-11-09T00:21:12.257Z,61.42
2022-11-09T00:22:12.401Z,57.07
2022-11-09T00:23:12.207Z,57.94
2022-11-09T00:24:12.225Z,58.69
2022-11-09T00:25:12.147Z,58.25
2022-11-09T00:26:12.195Z,54.34
2022-11-09T00:27:17.318Z,57.18
2022-11-09T00:28:14.179Z,60.14
2022-11-09T00:29:12.117Z,60.36
2022-11-09T00:30:12.135Z,55.49
2022-11-09T00:31:12.137Z,54.97
2022-11-09T00:32:12.110Z,54.89
2022-11-09T00:33:12.124Z,62.81
2022-11-09T00:34:12.091Z,61.38
2022-11-09T00:35:12.073Z,54.35
2022-11-09T00:36:12.071Z,55.30
2022-11-09T00:37:12.109Z,56.46
2022-11-09T00:38:12.112Z,60.14
2022-11-09T00:39:12.044Z,65.88
2022-11-09T00:40:12.062Z,53.34
2022-11-09T00:41:13.086Z,57.46
2022-11-09T00:42:12.047Z,65.89
2022-11-09T00:43:12.115Z,58.29
2022-11-09T00:44:12.058Z,60.42
2022-11-09T00:45:12.044Z,51.44
2022-11-09T00:46:12.040Z,53.03
2022-11-09T00:47:12.000Z,58.90
2022-11-09T00:48:12.035Z,53.43
2022-11-09T00:49:12.011Z,53.73
2022-11-09T00:50:12.040Z,61.98
2022-11-09T00:51:11.959Z,55.63
2022-11-09T00:52:11.961Z,58.43
2022-11-09T00:53:12.008Z,57.60
2022-11-09T00:54:11.972Z,62.92
2022-11-09T00:55:11.942Z,52.18
2022-11-09T00:56:11.930Z,60.66
2022-11-09T00:57:11.925Z,56.06
2022-11-09T00:58:11.989Z,57.49
2022-11-09T00:59:11.939Z,58.92
2022-11-09T01:00:11.956Z,51.82
2022-11-09T01:01:11.933Z,51.95
2022-11-09T01:02:11.934Z,60.09
2022-11-09T01:03:12.025Z,53.77
2022-11-09T01:04:11.881Z,67.42
2022-11-09T01:05:11.833Z,62.84
2022-11-09T01:06:11.832Z,42.70
2022-11-09T01:07:11.901Z,51.01
2022-11-09T01:08:11.840Z,57.52
2022-11-09T01:09:11.819Z,57.59
2022-11-09T01:10:11.807Z,42.76
2022-11-09T01:11:11.786Z,45.99
2022-11-09T01:12:11.784Z,43.81
2022-11-09T01:13:11.795Z,51.46
2022-11-09T01:14:11.759Z,67.12
2022-11-09T01:15:11.760Z,64.41
2022-11-09T01:16:11.750Z,62.87
2022-11-09T01:17:11.729Z,57.47
2022-11-09T01:18:11.766Z,60.38
2022-11-09T01:19:11.725Z,57.43
2022-11-09T01:20:11.716Z,45.56
2022-11-09T01:21:11.699Z,67.01
2022-11-09T01:22:11.691Z,54.14
2022-11-09T01:23:11.713Z,43.25
2022-11-09T01:24:11.710Z,63.07
2022-11-09T01:25:11.675Z,55.49
2022-11-09T01:26:11.667Z,55.91
2022-11-09T01:27:11.654Z,56.57
2022-11-09T01:28:11.682Z,51.08
2022-11-09T01:29:11.645Z,60.52
2022-11-09T01:30:11.624Z,66.28
2022-11-09T01:31:11.629Z,51.34
2022-11-09T01:32:11.642Z,44.78
2022-11-09T01:33:11.648Z,49.89
2022-11-09T01:34:11.593Z,40.77
2022-11-09T01:35:11.591Z,61.19
2022-11-09T01:36:11.584Z,55.71
2022-11-09T01:37:11.583Z,63.66
2022-11-09T01:38:11.598Z,54.11
2022-11-09T01:39:11.559Z,63.39
2022-11-09T01:40:11.547Z,68.60
2022-11-09T01:41:11.540Z,55.52
2022-11-09T01:42:11.540Z,43.25
2022-11-09T01:43:11.548Z,62.83
2022-11-09T01:44:11.518Z,56.64
2022-11-09T01:45:11.507Z,47.66
2022-11-09T01:46:11.495Z,58.09
2022-11-09T01:47:11.496Z,72.31
2022-11-09T01:48:11.543Z,55.83
2022-11-09T01:49:11.470Z,54.19
2022-11-09T01:50:11.462Z,51.72
2022-11-09T01:51:11.455Z,39.95
2022-11-09T01:52:11.447Z,38.99
2022-11-09T01:53:11.479Z,47.60
2022-11-09T01:54:11.431Z,41.30
2022-11-09T01:55:11.417Z,56.67
2022-11-09T01:56:11.435Z,54.89
2022-11-09T01:57:11.409Z,38.65
2022-11-09T01:58:11.402Z,53.86
2022-11-09T01:59:11.425Z,58.17
2022-11-09T02:00:11.380Z,51.20
2022-11-09T02:01:11.504Z,62.93
2022-11-09T02:02:11.366Z,53.49
2022-11-09T02:03:11.362Z,53.44
2022-11-09T02:04:11.382Z,50.55
2022-11-09T02:05:11.344Z,61.67
2022-11-09T02:06:11.349Z,59.14
2022-11-09T02:07:11.373Z,56.94
2022-11-09T02:08:11.306Z,56.26
2022-11-09T02:09:11.330Z,51.68
2022-11-09T02:10:11.297Z,54.83
2022-11-09T02:11:11.282Z,62.64
2022-11-09T02:12:11.311Z,55.41
2022-11-09T02:13:11.274Z,60.31
2022-11-09T02:14:11.363Z,53.26
2022-11-09T02:15:11.250Z,47.73
2022-11-09T02:16:11.259Z,68.09
2022-11-09T02:17:11.227Z,58.64
2022-11-09T02:18:11.275Z,57.34
2022-11-09T02:19:11.245Z,44.14
2022-11-09T02:20:11.216Z,58.62
2022-11-09T02:21:11.211Z,51.34
2022-11-09T02:22:11.197Z,61.05
2022-11-09T02:23:11.187Z,60.95
2022-11-09T02:24:11.211Z,53.42
2022-11-09T02:25:11.177Z,59.65
2022-11-09T02:26:11.167Z,56.52
2022-11-09T02:27:11.161Z,57.33
2022-11-09T02:28:11.142Z,45.02
2022-11-09T02:29:11.172Z,52.67
2022-11-09T02:30:11.132Z,60.32
2022-11-09T02:31:11.134Z,55.16
2022-11-09T02:32:11.123Z,49.62
2022-11-09T02:33:11.112Z,62.17
2022-11-09T02:34:11.133Z,61.13
2022-11-09T02:35:11.096Z,62.70
2022-11-09T02:36:11.093Z,49.94
2022-11-09T02:37:11.075Z,54.88
2022-11-09T02:38:11.068Z,57.12
2022-11-09T02:39:11.090Z,56.79
2022-11-09T02:40:11.059Z,52.95
2022-11-09T02:41:11.069Z,64.35
2022-11-09T02:42:11.527Z,54.43
2022-11-09T02:43:11.047Z,57.82
2022-11-09T02:44:11.049Z,45.01
2022-11-09T02:45:11.012Z,42.54
2022-11-09T02:46:11.039Z,52.31
2022-11-09T02:47:10.993Z,61.26
2022-11-09T02:48:10.986Z,50.66
2022-11-09T02:49:11.012Z,63.14
2022-11-09T02:50:10.980Z,60.88
2022-11-09T02:51:10.948Z,48.11
2022-11-09T02:52:11.959Z,57.05
2022-11-09T02:53:10.944Z,64.20
2022-11-09T02:54:10.962Z,58.56
2022-11-09T02:55:10.939Z,55.74
2022-11-09T02:56:10.937Z,52.73
2022-11-09T02:57:10.934Z,64.86
2022-11-09T02:58:10.907Z,56.21
2022-11-09T02:59:10.929Z,59.39
2022-11-09T03:00:10.896Z,64.84
2022-11-09T03:01:10.940Z,63.81
2022-11-09T03:02:10.877Z,46.61
2022-11-09T03:03:10.862Z,64.27
2022-11-09T03:04:10.893Z,55.76
2022-11-09T03:05:10.859Z,64.76
2022-11-09T03:06:10.841Z,57.95
2022-11-09T03:07:10.870Z,63.46
2022-11-09T03:08:10.826Z,57.75
2022-11-09T03:09:10.848Z,51.13
2022-11-09T03:10:10.813Z,52.39
2022-11-09T03:11:10.804Z,55.38
2022-11-09T03:12:10.801Z,55.98
2022-11-09T03:13:10.780Z,50.63
2022-11-09T03:14:11.810Z,61.88
2022-11-09T03:15:10.768Z,68.06
2022-11-09T03:16:10.753Z,57.75
2022-11-09T03:17:10.743Z,44.73
2022-11-09T03:18:10.865Z,50.62
2022-11-09T03:19:10.754Z,53.14
2022-11-09T03:20:10.724Z,58.43
2022-11-09T03:21:10.714Z,55.58
2022-11-09T03:22:10.708Z,56.99
2022-11-09T03:23:10.735Z,66.76
2022-11-09T03:24:10.692Z,56.81
2022-11-09T03:25:10.682Z,55.17
2022-11-09T03:26:10.673Z,64.94
2022-11-09T03:27:10.680Z,50.87
2022-11-09T03:28:10.658Z,63.91
2022-11-09T03:29:10.676Z,61.33
2022-11-09T03:30:10.637Z,58.53
2022-11-09T03:31:10.634Z,51.06
2022-11-09T03:32:10.626Z,54.05
2022-11-09T03:33:10.627Z,64.12
2022-11-09T03:34:10.631Z,59.30
2022-11-09T03:35:10.605Z,65.05
2022-11-09T03:36:10.587Z,60.95
2022-11-09T03:37:10.650Z,67.18
2022-11-09T03:38:10.572Z,63.16
2022-11-09T03:39:10.591Z,62.41
2022-11-09T03:40:10.548Z,65.56
2022-11-09T03:41:11.547Z,64.67
2022-11-09T03:42:10.552Z,62.45
2022-11-09T03:43:10.540Z,65.18
2022-11-09T03:44:10.548Z,65.55
2022-11-09T03:45:10.515Z,65.30
2022-11-09T03:46:10.504Z,62.55
2022-11-09T03:47:10.513Z,52.24
2022-11-09T03:48:10.494Z,60.26
2022-11-09T03:49:10.516Z,68.34
2022-11-09T03:50:10.483Z,63.96
2022-11-09T03:51:10.471Z,62.22
2022-11-09T03:52:10.460Z,58.62
2022-11-09T03:53:10.460Z,57.45
2022-11-09T03:54:10.473Z,58.93
2022-11-09T03:55:10.442Z,57.96
2022-11-09T03:56:10.431Z,56.27
2022-11-09T03:57:10.420Z,67.16
2022-11-09T03:58:10.407Z,69.72
2022-11-09T03:59:10.441Z,59.87
2022-11-09T04:00:10.396Z,63.79
2022-11-09T04:01:10.385Z,65.02
2022-11-09T04:02:10.444Z,67.80
2022-11-09T04:03:10.375Z,63.69
2022-11-09T04:04:10.387Z,61.31
2022-11-09T04:05:10.351Z,60.41
2022-11-09T04:06:10.435Z,66.57
2022-11-09T04:07:10.500Z,57.71
2022-11-09T04:08:10.367Z,62.12
2022-11-09T04:09:10.418Z,65.04
2022-11-09T04:10:10.339Z,61.13
2022-11-09T04:11:10.300Z,65.75
2022-11-09T04:12:10.293Z,64.03
2022-11-09T04:13:10.288Z,56.06
2022-11-09T04:14:10.313Z,69.93
2022-11-09T04:15:10.271Z,65.85
2022-11-09T04:16:10.315Z,68.12
2022-11-09T04:17:10.252Z,66.19
2022-11-09T04:18:10.254Z,69.10
2022-11-09T04:19:10.276Z,66.10
2022-11-09T04:20:10.228Z,69.80
2022-11-09T04:21:10.224Z,66.73
2022-11-09T04:22:10.221Z,69.88
2022-11-09T04:23:10.212Z,61.97
2022-11-09T04:24:10.225Z,65.42
2022-11-09T04:25:10.235Z,66.57
2022-11-09T04:26:10.185Z,65.21
2022-11-09T04:27:10.186Z,60.19
2022-11-09T04:28:10.172Z,68.52
2022-11-09T04:29:10.186Z,68.73
2022-11-09T04:30:10.154Z,68.20
2022-11-09T04:31:10.148Z,68.60
2022-11-09T04:32:10.127Z,64.16
2022-11-09T04:33:10.127Z,73.43
2022-11-09T04:34:10.146Z,65.30
2022-11-09T04:35:10.100Z,65.58
2022-11-09T04:36:10.102Z,62.00
2022-11-09T04:37:10.109Z,70.81
2022-11-09T04:38:10.077Z,68.12
2022-11-09T04:39:10.102Z,55.86
2022-11-09T04:40:10.046Z,66.99
2022-11-09T04:41:11.071Z,68.08
2022-11-09T04:42:10.048Z,70.59
2022-11-09T04:43:10.036Z,67.51
2022-11-09T04:44:13.622Z,67.90
2022-11-09T04:45:10.021Z,65.46
2022-11-09T04:46:10.016Z,67.78
2022-11-09T04:47:10.010Z,67.48
2022-11-09T04:48:09.994Z,62.91
2022-11-09T04:49:10.007Z,64.82
2022-11-09T04:50:09.979Z,69.65
2022-11-09T04:51:09.964Z,68.06
2022-11-09T04:52:10.007Z,58.64
2022-11-09T04:53:09.960Z,65.70
2022-11-09T04:54:09.977Z,70.57
2022-11-09T04:55:09.942Z,72.36
2022-11-09T04:56:09.950Z,66.69
2022-11-09T04:57:09.924Z,65.62
2022-11-09T04:58:09.941Z,63.95
2022-11-09T04:59:10.024Z,71.25
2022-11-09T05:00:09.898Z,61.57
2022-11-09T05:01:09.888Z,73.30
2022-11-09T05:02:09.877Z,65.86
2022-11-09T05:03:09.869Z,67.60
2022-11-09T05:04:09.935Z,68.14
2022-11-09T05:05:09.853Z,66.53
2022-11-09T05:06:09.843Z,70.73
2022-11-09T05:07:09.864Z,66.29
2022-11-09T05:08:09.825Z,67.01
2022-11-09T05:09:09.851Z,67.05
2022-11-09T05:10:09.901Z,62.78
2022-11-09T05:11:09.812Z,65.27
2022-11-09T05:12:09.791Z,69.27
2022-11-09T05:13:09.788Z,72.06
2022-11-09T05:14:09.807Z,68.97
2022-11-09T05:15:09.763Z,70.91
2022-11-09T05:16:09.760Z,73.84
2022-11-09T05:17:09.754Z,71.05
2022-11-09T05:18:09.750Z,68.50
2022-11-09T05:19:09.757Z,65.55
2022-11-09T05:20:09.719Z,69.38
2022-11-09T05:21:09.729Z,72.82
2022-11-09T05:22:09.706Z,65.09
2022-11-09T05:23:09.704Z,69.00
2022-11-09T05:24:09.728Z,70.66
2022-11-09T05:25:09.688Z,69.10
2022-11-09T05:26:09.678Z,62.79
2022-11-09T05:27:09.665Z,69.43
2022-11-09T05:28:09.889Z,72.66
2022-11-09T05:29:10.679Z,70.11
2022-11-09T05:30:09.639Z,70.81
2022-11-09T05:31:12.864Z,65.76
2022-11-09T05:32:09.626Z,67.43
2022-11-09T05:33:09.612Z,72.35
2022-11-09T05:34:09.651Z,71.74
2022-11-09T05:35:09.609Z,64.76
2022-11-09T05:36:09.595Z,71.68
2022-11-09T05:37:09.593Z,69.73
2022-11-09T05:38:09.582Z,69.00
2022-11-09T05:39:09.603Z,71.51
2022-11-09T05:40:09.562Z,66.96
2022-11-09T05:41:09.566Z,71.37
2022-11-09T05:42:09.544Z,71.02
2022-11-09T05:43:09.542Z,69.27
2022-11-09T05:44:09.572Z,71.29
2022-11-09T05:45:40.354Z,71.94
2022-11-09T05:46:11.517Z,69.37
2022-11-09T05:47:09.502Z,69.79
2022-11-09T05:48:10.494Z,67.25
2022-11-09T05:49:09.496Z,71.84
2022-11-09T05:50:09.594Z,71.88
2022-11-09T05:51:09.468Z,68.87
2022-11-09T05:52:09.464Z,69.37
2022-11-09T05:53:09.464Z,71.99
2022-11-09T05:54:09.446Z,70.70
2022-11-09T05:55:09.471Z,68.24
2022-11-09T05:56:09.453Z,69.35
2022-11-09T05:57:09.420Z,66.80
2022-11-09T05:58:09.466Z,68.15
2022-11-09T05:59:09.406Z,72.26
2022-11-09T06:00:11.131Z,70.33
2022-11-09T06:01:10.393Z,70.84
2022-11-09T06:02:09.414Z,68.35
2022-11-09T06:03:09.369Z,68.46
2022-11-09T06:04:09.363Z,68.76
2022-11-09T06:05:09.385Z,70.99
2022-11-09T06:06:09.351Z,70.86
2022-11-09T06:07:09.437Z,71.92
2022-11-09T06:08:09.324Z,64.79
2022-11-09T06:09:09.312Z,66.68
2022-11-09T06:10:09.337Z,71.19
2022-11-09T06:11:09.327Z,71.59
2022-11-09T06:12:09.297Z,66.71
2022-11-09T06:13:09.284Z,70.65
2022-11-09T06:14:09.278Z,70.89
2022-11-09T06:15:09.293Z,70.27
2022-11-09T06:16:09.263Z,68.81
2022-11-09T06:17:09.262Z,71.77
2022-11-09T06:18:09.245Z,71.46
2022-11-09T06:19:09.245Z,66.97
2022-11-09T06:20:09.279Z,71.02
2022-11-09T06:21:09.236Z,69.79
2022-11-09T06:22:09.219Z,70.09
2022-11-09T06:23:09.207Z,70.67
2022-11-09T06:24:09.203Z,68.91
2022-11-09T06:25:09.226Z,67.75
2022-11-09T06:26:09.203Z,71.04
2022-11-09T06:27:09.178Z,75.13
2022-11-09T06:28:09.164Z,71.48
2022-11-09T06:29:09.162Z,68.72
2022-11-09T06:30:09.186Z,69.73
2022-11-09T06:31:09.139Z,68.46
2022-11-09T06:32:09.132Z,70.80
2022-11-09T06:33:09.117Z,71.10
2022-11-09T06:34:09.120Z,71.90
2022-11-09T06:35:09.140Z,70.92
2022-11-09T06:36:09.125Z,71.15
2022-11-09T06:37:09.103Z,72.63
2022-11-09T06:38:09.088Z,70.59
2022-11-09T06:39:09.082Z,67.75
2022-11-09T06:40:09.067Z,68.20
2022-11-09T06:41:09.093Z,67.90
2022-11-09T06:42:09.091Z,70.41
2022-11-09T06:43:09.044Z,71.50
2022-11-09T06:44:09.042Z,71.81
2022-11-09T06:45:09.022Z,70.87
2022-11-09T06:46:09.053Z,70.84
2022-11-09T06:47:09.022Z,69.98
2022-11-09T06:48:08.999Z,69.35
2022-11-09T06:49:09.000Z,69.49
2022-11-09T06:50:08.988Z,72.22
2022-11-09T06:51:09.005Z,70.92
2022-11-09T06:52:12.873Z,73.34
2022-11-09T06:53:08.964Z,71.92
2022-11-09T06:54:08.949Z,67.15
2022-11-09T06:55:08.974Z,64.81
2022-11-09T06:56:08.961Z,71.58
2022-11-09T06:57:08.944Z,69.67
2022-11-09T06:58:08.928Z,66.98
2022-11-09T06:59:08.909Z,71.13
2022-11-09T07:00:08.909Z,71.17
2022-11-09T07:01:09.003Z,71.33
2022-11-09T07:02:08.896Z,71.47
2022-11-09T07:03:08.888Z,69.80
2022-11-09T07:04:08.880Z,70.56
2022-11-09T07:05:08.874Z,62.78
2022-11-09T07:06:08.892Z,69.28
2022-11-09T07:07:08.880Z,68.43
2022-11-09T07:08:08.865Z,72.68
2022-11-09T07:09:09.840Z,67.12
2022-11-09T07:10:08.837Z,69.93
2022-11-09T07:11:08.858Z,65.49
2022-11-09T07:12:08.808Z,70.22
2022-11-09T07:13:08.795Z,71.19
2022-11-09T07:14:08.787Z,70.31
2022-11-09T07:15:08.792Z,73.61
2022-11-09T07:16:08.832Z,70.55
2022-11-09T07:17:08.763Z,64.73
2022-11-09T07:18:08.759Z,68.34
2022-11-09T07:19:08.754Z,70.29
2022-11-09T07:20:08.741Z,70.74
2022-11-09T07:21:13.839Z,68.77
2022-11-09T07:22:10.723Z,66.97
2022-11-09T07:23:08.723Z,62.83
2022-11-09T07:24:08.712Z,70.26
2022-11-09T07:25:08.700Z,73.74
2022-11-09T07:26:08.714Z,71.56
2022-11-09T07:27:08.681Z,68.05
2022-11-09T07:28:08.670Z,64.25
2022-11-09T07:29:09.675Z,72.10
2022-11-09T07:30:08.659Z,69.88
2022-11-09T07:31:08.685Z,71.65
2022-11-09T07:32:08.645Z,67.88
2022-11-09T07:33:10.236Z,69.60
2022-11-09T07:34:09.627Z,67.23
2022-11-09T07:35:08.625Z,71.44
2022-11-09T07:36:08.644Z,69.17
2022-11-09T07:37:08.611Z,66.17
2022-11-09T07:38:08.601Z,67.90
2022-11-09T07:39:08.586Z,69.38
2022-11-09T07:40:08.582Z,71.27
2022-11-09T07:41:08.596Z,64.35
2022-11-09T07:42:08.564Z,68.99
2022-11-09T07:43:08.562Z,71.48
2022-11-09T07:44:08.550Z,72.48
2022-11-09T07:45:40.476Z,68.50
2022-11-09T07:46:08.534Z,65.71
2022-11-09T07:47:08.536Z,62.13
2022-11-09T07:48:08.512Z,70.37
2022-11-09T07:49:08.511Z,72.44
2022-11-09T07:50:08.539Z,69.00
2022-11-09T07:51:08.740Z,64.59
2022-11-09T07:52:08.499Z,71.90
2022-11-09T07:53:08.478Z,71.67
2022-11-09T07:54:08.462Z,69.19
2022-11-09T07:55:08.458Z,70.79
2022-11-09T07:56:08.483Z,71.18
2022-11-09T07:57:08.440Z,70.72
2022-11-09T07:58:08.427Z,68.77
2022-11-09T07:59:08.417Z,67.06
2022-11-09T08:00:08.419Z,61.40
2022-11-09T08:01:08.432Z,65.75
2022-11-09T08:02:08.500Z,70.06
2022-11-09T08:03:08.391Z,70.93
2022-11-09T08:04:08.377Z,65.58
2022-11-09T08:05:08.371Z,65.98
2022-11-09T08:06:08.400Z,71.61
2022-11-09T08:07:08.393Z,68.85
2022-11-09T08:08:08.342Z,70.24
2022-11-09T08:09:08.337Z,66.10
2022-11-09T08:10:08.321Z,68.07
2022-11-09T08:11:08.344Z,68.91
2022-11-09T08:12:08.310Z,68.46
2022-11-09T08:13:08.312Z,64.25
2022-11-09T08:14:08.288Z,67.16
2022-11-09T08:15:08.284Z,68.47
2022-11-09T08:16:08.315Z,68.07
2022-11-09T08:17:08.267Z,69.25
2022-11-09T08:18:08.251Z,67.90
2022-11-09T08:19:08.243Z,72.52
2022-11-09T08:20:08.249Z,64.99
2022-11-09T08:21:08.263Z,68.03
2022-11-09T08:22:08.221Z,63.13
2022-11-09T08:23:08.222Z,61.63
2022-11-09T08:24:08.207Z,69.92
2022-11-09T08:25:08.191Z,67.93
2022-11-09T08:26:08.217Z,70.61
2022-11-09T08:27:08.179Z,70.85
2022-11-09T08:28:13.416Z,71.68
2022-11-09T08:29:10.161Z,63.55
2022-11-09T08:30:08.156Z,71.19
2022-11-09T08:31:08.170Z,66.44
2022-11-09T08:32:08.136Z,65.46
2022-11-09T08:33:08.132Z,68.18
2022-11-09T08:34:08.116Z,69.12
2022-11-09T08:35:08.108Z,69.18
2022-11-09T08:36:08.138Z,72.12
2022-11-09T08:37:08.090Z,64.84
2022-11-09T08:38:08.082Z,66.90
2022-11-09T08:39:08.097Z,65.78
2022-11-09T08:40:08.064Z,68.37
2022-11-09T08:41:13.058Z,71.25
2022-11-09T08:42:10.050Z,69.22
2022-11-09T08:43:08.043Z,67.91
2022-11-09T08:44:08.037Z,70.44
2022-11-09T08:45:08.029Z,63.89
2022-11-09T08:46:08.045Z,71.07
2022-11-09T08:47:08.005Z,69.45
2022-11-09T08:48:07.996Z,65.43
2022-11-09T08:49:07.993Z,72.02
2022-11-09T08:50:07.988Z,69.04
2022-11-09T08:51:08.013Z,64.51
2022-11-09T08:52:07.964Z,68.34
2022-11-09T08:53:07.969Z,66.98
2022-11-09T08:54:07.953Z,69.21
2022-11-09T08:55:07.948Z,66.22
2022-11-09T08:56:07.970Z,61.08
2022-11-09T08:57:07.924Z,72.02
2022-11-09T08:58:07.924Z,65.33
2022-11-09T08:59:07.935Z,71.35
2022-11-09T09:00:07.911Z,66.38
2022-11-09T09:01:11.031Z,71.34
2022-11-09T09:02:08.927Z,66.96
2022-11-09T09:03:07.886Z,67.35
2022-11-09T09:04:07.880Z,68.50
2022-11-09T09:05:07.862Z,67.55
2022-11-09T09:06:07.877Z,68.14
2022-11-09T09:07:07.867Z,67.76
2022-11-09T09:08:07.842Z,72.23
2022-11-09T09:09:07.837Z,65.40
2022-11-09T09:10:07.839Z,67.05
2022-11-09T09:11:07.837Z,72.96
2022-11-09T09:12:07.806Z,72.25
2022-11-09T09:13:07.790Z,67.72
2022-11-09T09:14:07.791Z,66.58
2022-11-09T09:15:07.803Z,68.46
2022-11-09T09:16:07.796Z,66.96
2022-11-09T09:17:07.764Z,67.07
2022-11-09T09:18:07.749Z,68.83
2022-11-09T09:19:08.739Z,67.19
2022-11-09T09:20:07.737Z,70.81
2022-11-09T09:21:07.764Z,71.34
2022-11-09T09:22:07.712Z,67.85
2022-11-09T09:23:07.701Z,65.58
2022-11-09T09:24:07.715Z,67.19
2022-11-09T09:25:07.705Z,70.54
2022-11-09T09:26:07.717Z,71.07
2022-11-09T09:27:07.687Z,70.25
2022-11-09T09:28:07.669Z,66.13
2022-11-09T09:29:07.663Z,71.96
2022-11-09T09:30:07.659Z,66.15
2022-11-09T09:31:07.673Z,65.51
2022-11-09T09:32:07.631Z,66.84
2022-11-09T09:33:07.628Z,69.72
2022-11-09T09:34:07.615Z,65.43
2022-11-09T09:35:07.619Z,64.29
2022-11-09T09:36:07.625Z,70.11
2022-11-09T09:37:07.590Z,66.67
2022-11-09T09:38:07.586Z,66.22
2022-11-09T09:39:07.579Z,71.10
2022-11-09T09:40:07.565Z,69.36
2022-11-09T09:41:07.598Z,67.31
2022-11-09T09:42:07.562Z,65.28
2022-11-09T09:43:07.543Z,67.68
2022-11-09T09:44:07.534Z,66.09
2022-11-09T09:45:07.529Z,67.72
2022-11-09T09:46:07.558Z,69.72
2022-11-09T09:47:07.506Z,66.19
2022-11-09T09:48:08.502Z,65.95
2022-11-09T09:49:07.499Z,69.73
2022-11-09T09:50:07.524Z,67.65
2022-11-09T09:51:07.506Z,69.72
2022-11-09T09:52:07.470Z,67.70
2022-11-09T09:53:24.539Z,66.09
2022-11-09T09:54:09.457Z,71.06
2022-11-09T09:55:07.448Z,68.40
2022-11-09T09:56:07.463Z,65.09
2022-11-09T09:57:07.431Z,68.37
2022-11-09T09:58:07.472Z,67.76
2022-11-09T09:59:07.420Z,71.67
2022-11-09T10:00:07.398Z,66.24
2022-11-09T10:01:07.419Z,68.31
2022-11-09T10:02:07.385Z,64.55
2022-11-09T10:03:07.382Z,69.18
2022-11-09T10:04:07.412Z,66.93
2022-11-09T10:05:07.363Z,67.63
2022-11-09T10:06:07.393Z,62.75
2022-11-09T10:07:07.356Z,67.40
2022-11-09T10:08:07.335Z,67.09
2022-11-09T10:09:07.324Z,63.56
2022-11-09T10:10:07.328Z,68.85
2022-11-09T10:11:07.438Z,69.98
2022-11-09T10:12:07.304Z,62.45
2022-11-09T10:13:07.340Z,71.31
2022-11-09T10:14:07.283Z,60.72
2022-11-09T10:15:07.291Z,67.35
2022-11-09T10:16:07.324Z,67.77
2022-11-09T10:17:07.258Z,67.15
2022-11-09T10:18:07.256Z,71.70
2022-11-09T10:19:07.245Z,65.36
2022-11-09T10:20:07.248Z,63.69
2022-11-09T10:21:07.233Z,70.03
2022-11-09T10:22:07.255Z,68.76
2022-11-09T10:23:07.219Z,67.62
2022-11-09T10:24:07.210Z,65.73
2022-11-09T10:26:14.450Z,71.92
2022-11-09T10:27:09.184Z,65.47
2022-11-09T10:28:12.823Z,70.09
2022-11-09T10:29:16.739Z,66.70
2022-11-09T10:30:09.163Z,71.22
2022-11-09T10:31:07.144Z,67.80
2022-11-09T10:32:07.299Z,65.70
2022-11-09T10:33:07.129Z,69.27
2022-11-09T10:34:07.121Z,67.58
2022-11-09T10:35:07.122Z,70.44
2022-11-09T10:36:08.547Z,64.74
2022-11-09T10:37:08.135Z,68.45
2022-11-09T10:38:07.089Z,67.59
2022-11-09T10:39:07.087Z,66.15
2022-11-09T10:40:07.068Z,67.09
2022-11-09T10:41:07.064Z,71.78
2022-11-09T10:42:07.332Z,70.49
2022-11-09T10:43:07.048Z,65.83
2022-11-09T10:44:07.029Z,68.65
2022-11-09T10:45:07.034Z,67.41
2022-11-09T10:46:07.027Z,70.00
2022-11-09T10:47:07.054Z,68.04
2022-11-09T10:48:07.009Z,67.41
2022-11-09T10:49:06.991Z,65.15
2022-11-09T10:50:06.996Z,70.38
2022-11-09T10:51:06.987Z,68.00
2022-11-09T10:52:07.005Z,72.44
2022-11-09T10:53:06.963Z,66.99
2022-11-09T10:54:06.949Z,65.70
2022-11-09T10:55:06.947Z,68.73
2022-11-09T10:56:06.943Z,70.14
2022-11-09T10:57:07.263Z,68.77
2022-11-09T10:58:06.922Z,61.44
2022-11-09T10:59:06.917Z,68.21
2022-11-09T11:00:06.911Z,70.30
2022-11-09T11:01:06.928Z,67.87
2022-11-09T11:02:07.016Z,63.16
2022-11-09T11:03:06.885Z,69.97
2022-11-09T11:04:06.868Z,70.03
2022-11-09T11:05:06.860Z,65.76
2022-11-09T11:06:06.848Z,67.86
2022-11-09T11:07:06.905Z,70.98
2022-11-09T11:08:06.833Z,72.43
2022-11-09T11:09:06.826Z,71.46
2022-11-09T11:10:06.809Z,67.81
2022-11-09T11:11:27.121Z,64.14
2022-11-09T11:12:08.831Z,69.71
2022-11-09T11:13:06.796Z,69.53
2022-11-09T11:14:06.784Z,67.15
2022-11-09T11:15:06.776Z,69.86
2022-11-09T11:16:06.774Z,66.77
2022-11-09T11:17:06.787Z,68.23
2022-11-09T11:18:06.747Z,71.49
2022-11-09T11:19:06.744Z,69.57
2022-11-09T11:20:06.745Z,67.05
2022-11-09T11:21:06.731Z,67.41
2022-11-09T11:22:06.745Z,66.96
2022-11-09T11:23:06.706Z,72.12
2022-11-09T11:24:06.694Z,71.79
2022-11-09T11:25:06.695Z,65.67
2022-11-09T11:26:06.684Z,67.92
2022-11-09T11:27:10.509Z,71.31
2022-11-09T11:28:07.673Z,64.16
2022-11-09T11:29:06.669Z,64.99
2022-11-09T11:30:06.659Z,67.70
2022-11-09T11:31:06.652Z,67.00
2022-11-09T11:32:06.676Z,67.19
2022-11-09T11:33:06.625Z,62.60
2022-11-09T11:34:06.718Z,67.90
2022-11-09T11:35:06.612Z,67.58
2022-11-09T11:36:06.648Z,72.36
2022-11-09T11:37:06.627Z,70.05
2022-11-09T11:38:06.589Z,69.97
2022-11-09T11:39:06.594Z,69.01
2022-11-09T11:40:06.571Z,71.22
2022-11-09T11:41:06.575Z,70.35
2022-11-09T11:42:06.555Z,64.68
2022-11-09T11:43:06.581Z,70.87
2022-11-09T11:44:06.541Z,69.68
2022-11-09T11:45:38.441Z,63.42
2022-11-09T11:46:08.556Z,61.31
2022-11-09T11:47:06.513Z,69.99
2022-11-09T11:48:06.544Z,68.33
2022-11-09T11:49:06.507Z,72.19
2022-11-09T11:50:06.524Z,70.77
2022-11-09T11:51:06.490Z,63.70
2022-11-09T11:52:06.482Z,66.11
2022-11-09T11:53:06.569Z,69.78
2022-11-09T11:54:06.467Z,70.00
2022-11-09T11:55:06.463Z,69.07
2022-11-09T11:56:06.448Z,70.90
2022-11-09T11:57:06.438Z,66.02
2022-11-09T11:58:06.452Z,69.19
2022-11-09T11:59:06.421Z,70.42
2022-11-09T12:00:06.410Z,65.73
2022-11-09T12:01:06.403Z,66.65
2022-11-09T12:02:06.402Z,71.31
2022-11-09T12:03:06.482Z,69.40
2022-11-09T12:04:06.375Z,68.65
2022-11-09T12:05:06.369Z,71.05
2022-11-09T12:06:07.380Z,70.01
2022-11-09T12:07:06.459Z,69.33
2022-11-09T12:08:06.368Z,68.13
2022-11-09T12:09:06.337Z,63.55
2022-11-09T12:10:06.332Z,70.29
2022-11-09T12:11:06.317Z,69.49
2022-11-09T12:12:06.304Z,70.77
2022-11-09T12:13:06.345Z,69.60
2022-11-09T12:14:06.304Z,68.69
2022-11-09T12:15:06.289Z,72.63
2022-11-09T12:16:06.289Z,71.06
2022-11-09T12:17:06.263Z,66.92
2022-11-09T12:18:06.289Z,67.89
2022-11-09T12:19:06.258Z,67.90
2022-11-09T12:20:06.243Z,67.99
2022-11-09T12:21:06.244Z,70.35
2022-11-09T12:22:06.231Z,71.87
2022-11-09T12:23:06.244Z,68.86
2022-11-09T12:24:06.217Z,65.43
2022-11-09T12:25:06.208Z,68.33
2022-11-09T12:26:09.467Z,69.86
2022-11-09T12:27:30.318Z,69.55
2022-11-09T12:28:08.391Z,69.97
2022-11-09T12:29:07.240Z,67.39
2022-11-09T12:30:06.322Z,61.92
2022-11-09T12:31:06.229Z,68.93
2022-11-09T12:32:06.353Z,70.27
2022-11-09T12:33:06.267Z,71.53
2022-11-09T12:34:07.209Z,68.48
2022-11-09T12:35:06.197Z,68.94
2022-11-09T12:36:06.262Z,66.81
2022-11-09T12:37:06.173Z,69.03
2022-11-09T12:38:06.219Z,72.36
2022-11-09T12:39:06.140Z,70.79
2022-11-09T12:40:06.143Z,65.91
2022-11-09T12:41:06.174Z,68.70
2022-11-09T12:42:06.051Z,71.93
2022-11-09T12:43:06.088Z,66.12
2022-11-09T12:44:06.040Z,66.88
2022-11-09T12:45:06.039Z,67.61
2022-11-09T12:46:07.021Z,68.42
2022-11-09T12:47:06.035Z,72.04
2022-11-09T12:48:06.040Z,70.26
2022-11-09T12:49:06.007Z,63.71
2022-11-09T12:50:05.992Z,65.00
2022-11-09T12:51:05.989Z,67.79
2022-11-09T12:52:05.993Z,67.62
2022-11-09T12:53:06.010Z,65.49